Ames, South Dakota
Current Conditions -  °F | °C
As of 4:53 PM on Wednesday 22 Oct 2014 (Local Time) from KPIR Reporting Station
Clear Clear  
Wind Chill: 64°   Ceiling: Unl
Heat Index: 64°   Visibility: 10mi
Dew Point: 41°   Wind: 6mph
Humidity: 43%   Direction: 270°W
Pressure: 29.93"   Gusts: NA
Location:  44.3693°N, 100.04°W
Report Text: KPIR 222153Z AUTO 27005KT 10SM CLR 18/05 A2993 RMK AO2 SLP132 T01780050
Loading
Personal Weather Stations






























Interactive Weather Map New forecast layout! Learn more

10-Day Weather Forecast

Advertisements
Track Severe Weather on mobile